Celestial Wing — H9JT — position and weather

sailwx.info

Track history (hours):
 
Tides and Currents Weather Stations Pressure Air Temp Water Temp Dewpoint Dewpoint Depression Visibility Wind Speed Wind Dir Waves Ship Positions

Celestial Wing

Last reported at 2017-Sep-24 10:29 UTC. Time now 2017-Sep-25 15:02 UTC.
Position N 36°35' E 015°00'.

Length 180 m; beam 30 m.

Type: Cargo ship. MMSI: 356145000.

Date/timePositionNaut miles runAvg speedWind from/ knotsBaromVisibWave heightAir tempDewpointWater temp
2017-Sep-24 10:29N 36°35' E 015°00'815.6
2017-Sep-24 10:00N 36°35' E 014°51'815.3
2017-Sep-24 09:30N 36°37' E 014°41'815.1
2017-Sep-24 08:59N 36°40' E 014°32'815.0
2017-Sep-24 08:25N 36°43' E 014°23'615.0
2017-Sep-24 08:00N 36°46' E 014°16'815.7
2017-Sep-24 07:28N 36°50' E 014°06'816.3
2017-Sep-24 07:00N 36°53' E 013°58'816.3
2017-Sep-24 06:31N 36°56' E 013°49'815.9
2017-Sep-24 06:00N 36°60' E 013°40'  
2017-Sep-21 19:52N 39°43' W 000°02'1915.5
2017-Sep-21 18:36N 39°57' E 000°16'215.3
2017-Sep-21 18:30N 39°58' E 000°17'815.2
2017-Sep-21 18:00N 40°04' E 000°24'1615.0
2017-Sep-21 16:56N 40°16' E 000°38'1114.7
2017-Sep-21 16:12N 40°24' E 000°47'414.6
2017-Sep-21 15:57N 40°28' E 000°49'714.5
2017-Sep-21 15:26N 40°34' E 000°54'1014.9
2017-Sep-21 14:47N 40°42' E 001°00'915.3
2017-Sep-21 14:11N 40°51' E 001°05'1315.0
2017-Sep-21 13:21N 41°02' E 001°12'3 0.2
2017-Sep-20 16:13N 41°06' E 001°12'0 0.0
2017-Sep-20 15:43N 41°06' E 001°12'0 0.0
2017-Sep-20 15:25N 41°06' E 001°12'0 0.0
2017-Sep-20 14:55N 41°06' E 001°12'15 1.0
2017-Sep-19 23:00N 40°56' E 001°28'813.9
2017-Sep-19 22:26N 40°52' E 001°37'714.0
2017-Sep-19 21:56N 40°48' E 001°45'614.2
2017-Sep-19 21:30N 40°45' E 001°51'714.3
2017-Sep-19 21:00N 40°41' E 001°59'714.4
2017-Sep-19 20:30N 40°37' E 002°08'714.3
2017-Sep-19 20:00N 40°33' E 002°15'714.6
2017-Sep-19 19:30N 40°29' E 002°24'714.9
2017-Sep-19 19:00N 40°25' E 002°32'815.2
2017-Sep-19 18:30N 40°21' E 002°40'815.2
2017-Sep-19 18:00N 40°17' E 002°49'815.3
2017-Sep-19 17:30N 40°13' E 002°57'815.6
2017-Sep-19 17:00N 40°09' E 003°06'2014.9
2017-Sep-19 15:40N 39°58' E 003°27'315.4
2017-Sep-19 15:30N 39°57' E 003°30'815.4
2017-Sep-19 15:00N 39°53' E 003°39'815.0
2017-Sep-19 14:28N 39°50' E 003°49'715.0
2017-Sep-19 14:00N 39°48' E 003°58'22514.4
2017-Sep-18 22:23N 38°44' E 008°36'614.9
2017-Sep-18 21:59N 38°42' E 008°43'815.0
2017-Sep-18 21:29N 38°39' E 008°52'714.9
2017-Sep-18 21:00N 38°36' E 009°00'1014.9
2017-Sep-18 20:20N 38°33' E 009°12'515.0
2017-Sep-18 20:00N 38°31' E 009°18'814.9
2017-Sep-18 19:29N 38°28' E 009°27'714.8
2017-Sep-18 19:00N 38°25' E 009°36'814.6
2017-Sep-18 18:27N 38°22' E 009°45'714.4
2017-Sep-18 18:00N 38°20' E 009°53'10414.7
2017-Sep-18 10:53N 37°39' E 011°55'614.7
2017-Sep-18 10:28N 37°36' E 012°02'714.7
2017-Sep-18 10:00N 37°33' E 012°10'714.3
2017-Sep-18 09:30N 37°30' E 012°18'714.0
2017-Sep-18 09:00N 37°27' E 012°26'1314.7
2017-Sep-18 08:08N 37°22' E 012°40'1514.1
2017-Sep-18 07:03N 37°15' E 012°58'114.2
2017-Sep-18 07:00N 37°15' E 012°59'1114.3
2017-Sep-18 06:15N 37°11' E 013°11'314.2
2017-Sep-18 06:00N 37°09' E 013°15'714.3
2017-Sep-18 05:30N 37°06' E 013°23'814.4
2017-Sep-18 04:59N 37°03' E 013°32'714.1
2017-Sep-18 04:30N 37°00' E 013°39'714.2
2017-Sep-18 04:00N 36°57' E 013°47'714.6
2017-Sep-18 03:30N 36°54' E 013°55'815.0
2017-Sep-18 03:00N 36°51' E 014°04'714.5
2017-Sep-18 02:30N 36°48' E 014°12'714.4
2017-Sep-18 02:00N 36°45' E 014°20'815.1
2017-Sep-18 01:30N 36°41' E 014°29'714.9
2017-Sep-18 01:00N 36°38' E 014°37'714.9
2017-Sep-18 00:30N 36°35' E 014°46'814.8
2017-Sep-18 00:00N 36°36' E 014°55'715.0
2017-Sep-17 23:30N 36°36' E 015°04'815.0
2017-Sep-17 22:59N 36°38' E 015°14'5614.6
2017-Sep-17 19:10N 37°21' E 015°58'314.7
2017-Sep-17 18:59N 37°23' E 016°00'714.5
2017-Sep-17 18:30N 37°28' E 016°06'814.1
2017-Sep-17 17:55N 37°34' E 016°12'613.9
2017-Sep-17 17:28N 37°39' E 016°18'2914.4
2017-Sep-17 15:25N 38°02' E 016°41'714.6
2017-Sep-17 14:55N 38°08' E 016°47'1614.7
2017-Sep-17 13:48N 38°21' E 017°00'414.6
2017-Sep-17 13:30N 38°24' E 017°04'714.6
2017-Sep-17 13:00N 38°29' E 017°10'714.5
2017-Sep-17 12:30N 38°35' E 017°16'714.4
2017-Sep-17 12:01N 38°40' E 017°22'714.4
2017-Sep-17 11:31N 38°46' E 017°27'714.7
2017-Sep-17 11:00N 38°52' E 017°33'714.6
2017-Sep-17 10:31N 38°57' E 017°39'714.2
2017-Sep-17 10:01N 39°03' E 017°45'714.5
2017-Sep-17 09:31N 39°09' E 017°51'714.4
2017-Sep-17 09:01N 39°14' E 017°57'714.4
2017-Sep-17 08:30N 39°20' E 018°03'714.4
2017-Sep-17 08:01N 39°25' E 018°09'714.9
2017-Sep-17 07:31N 39°31' E 018°15'815.2
2017-Sep-17 07:00N 39°37' E 018°21'714.8
2017-Sep-17 06:31N 39°43' E 018°27'713.8
2017-Sep-17 06:01N 39°49' E 018°32'714.1
2017-Sep-17 05:30N 39°55' E 018°34'714.3
2017-Sep-17 05:01N 40°02' E 018°37'714.0
2017-Sep-17 04:30N 40°09' E 018°37'714.9
2017-Sep-17 04:00N 40°16' E 018°34'714.9
2017-Sep-17 03:30N 40°23' E 018°31'715.0
2017-Sep-17 03:00N 40°30' E 018°28'714.3
2017-Sep-17 02:30N 40°36' E 018°23'714.8
2017-Sep-17 02:00N 40°42' E 018°16'815.1
2017-Sep-17 01:30N 40°47' E 018°09'815.1
2017-Sep-17 01:00N 40°52' E 018°02'815.0
2017-Sep-17 00:30N 40°58' E 017°55'714.7
2017-Sep-17 00:00N 41°03' E 017°48'714.5
2017-Sep-16 23:30N 41°08' E 017°41'714.7
2017-Sep-16 23:00N 41°13' E 017°34'914.6
2017-Sep-16 22:25N 41°19' E 017°26'614.5
2017-Sep-16 22:00N 41°23' E 017°20'714.2
2017-Sep-16 21:30N 41°28' E 017°13'714.4
2017-Sep-16 20:59N 41°33' E 017°06'15114.8
2017-Sep-16 10:47N 43°25' E 014°47'714.7
2017-Sep-16 10:17N 43°30' E 014°41'2714.5
2017-Sep-16 08:24N 43°51' E 014°17'1715.1
2017-Sep-16 07:15N 44°05' E 014°03'415.4
2017-Sep-16 07:00N 44°09' E 014°00'815.3
2017-Sep-16 06:30N 44°15' E 013°54'815.1
2017-Sep-16 06:00N 44°21' E 013°49'714.8
2017-Sep-16 05:30N 44°28' E 013°43'714.7
2017-Sep-16 05:01N 44°34' E 013°37'714.4
2017-Sep-16 04:30N 44°40' E 013°32'714.7
2017-Sep-16 04:00N 44°46' E 013°26'714.6
2017-Sep-16 03:30N 44°52' E 013°20'714.3
2017-Sep-16 03:00N 44°58' E 013°14'714.3
2017-Sep-16 02:30N 45°04' E 013°09'714.0
2017-Sep-16 02:00N 45°10' E 013°04'714.3
2017-Sep-16 01:30N 45°17' E 013°02'713.5
2017-Sep-16 01:00N 45°24' E 013°04'815.2
2017-Sep-16 00:30N 45°29' E 013°11'714.9
2017-Sep-16 00:00N 45°34' E 013°19'815.2
2017-Sep-15 23:30N 45°37' E 013°29'713.2
2017-Sep-15 23:00N 45°36' E 013°39'4 8.6
2017-Sep-15 22:30N 45°33' E 013°43'1 1.0
2017-Sep-15 21:52N 45°33' E 013°44'0 0.0
2017-Sep-15 21:16N 45°33' E 013°44'0 0.0
2017-Sep-15 20:58N 45°33' E 013°44'0 0.0
2017-Sep-15 20:28N 45°33' E 013°44'0 0.0
2017-Sep-15 19:55N 45°33' E 013°44'0 0.0
2017-Sep-15 19:28N 45°33' E 013°44'0 0.0
2017-Sep-15 18:58N 45°33' E 013°44'0 0.0
2017-Sep-15 18:22N 45°33' E 013°44'0 0.0
2017-Sep-15 17:58N 45°33' E 013°44'0 0.0
2017-Sep-15 17:25N 45°33' E 013°44'0 0.0
2017-Sep-15 16:58N 45°33' E 013°44'0 0.0
2017-Sep-15 16:28N 45°33' E 013°44'0 0.0
2017-Sep-15 15:55N 45°33' E 013°44'0 0.0
2017-Sep-15 15:28N 45°33' E 013°44'0 0.0
2017-Sep-15 14:58N 45°33' E 013°44'0 0.0
2017-Sep-15 14:28N 45°33' E 013°44'0 0.0
2017-Sep-15 13:58N 45°33' E 013°44'0 0.0
2017-Sep-15 13:28N 45°33' E 013°44'0 0.0
2017-Sep-15 12:58N 45°33' E 013°44'0 0.0
2017-Sep-15 12:28N 45°33' E 013°44'0 0.0
2017-Sep-15 07:55N 45°33' E 013°44'0 0.0
2017-Sep-15 07:28N 45°33' E 013°44'0 0.0
2017-Sep-15 06:55N 45°33' E 013°44'0 0.0
2017-Sep-15 06:22N 45°33' E 013°44'0 0.0
2017-Sep-15 05:58N 45°33' E 013°44'0 0.0
2017-Sep-15 05:25N 45°33' E 013°44'0 0.0
2017-Sep-15 04:58N 45°33' E 013°44'0 0.0
2017-Sep-15 04:28N 45°33' E 013°44'0 0.0
2017-Sep-15 03:55N 45°33' E 013°44'0 0.0
2017-Sep-15 03:22N 45°33' E 013°44'0 0.0
2017-Sep-15 02:58N 45°33' E 013°44'0 0.0
2017-Sep-15 02:25N 45°33' E 013°44'0 0.0
2017-Sep-15 01:52N 45°33' E 013°44'0 0.0
2017-Sep-15 01:28N 45°33' E 013°44'0 0.0
2017-Sep-15 00:55N 45°33' E 013°44'0 0.0
2017-Sep-15 00:25N 45°33' E 013°44'0 0.0
2017-Sep-14 23:55N 45°33' E 013°44'0 0.0
2017-Sep-14 23:25N 45°33' E 013°44'0 0.0
2017-Sep-14 22:58N 45°33' E 013°44'0 0.0
2017-Sep-14 22:25N 45°33' E 013°44'0 0.0
2017-Sep-14 21:55N 45°33' E 013°44'0 0.0
2017-Sep-14 21:28N 45°33' E 013°44'0 0.0
2017-Sep-14 20:55N 45°33' E 013°44'0 0.0
2017-Sep-14 20:28N 45°33' E 013°44'0 0.0
2017-Sep-14 19:58N 45°33' E 013°44'0 0.0
2017-Sep-14 19:28N 45°33' E 013°44'0 0.0
2017-Sep-14 18:55N 45°33' E 013°44'0 0.0
2017-Sep-14 18:28N 45°33' E 013°44'0 0.0
2017-Sep-14 17:55N 45°33' E 013°44'0 0.0
2017-Sep-14 17:13N 45°33' E 013°44'0 0.0
2017-Sep-14 16:55N 45°33' E 013°44'0 0.0
2017-Sep-14 16:13N 45°33' E 013°44'0 0.0
2017-Sep-14 15:55N 45°33' E 013°44'0 0.0
2017-Sep-14 15:28N 45°33' E 013°44'0 0.0
2017-Sep-14 14:55N 45°33' E 013°44'0 0.0
2017-Sep-14 14:25N 45°33' E 013°44'0 0.0
2017-Sep-14 13:58N 45°33' E 013°44'0 0.0
2017-Sep-14 13:19N 45°33' E 013°44'0 0.0
2017-Sep-14 12:58N 45°33' E 013°44'0 0.0
2017-Sep-14 12:28N 45°33' E 013°44'0 0.0
2017-Sep-14 11:58N 45°33' E 013°44'0 0.0
2017-Sep-14 11:28N 45°33' E 013°44'0 0.0
2017-Sep-14 10:40N 45°33' E 013°44'  
Track history (hours):
 
Tides and Currents Weather Stations Pressure Air Temp Water Temp Dewpoint Dewpoint Depression Visibility Wind Speed Wind Dir Waves Ship Positions

Celestial Wing

Last reported at 2017-Sep-24 10:29 UTC. Time now 2017-Sep-25 15:02 UTC.
Position N 36°35' E 015°00'.

Length 180 m; beam 30 m.

Type: Cargo ship. MMSI: 356145000.

Date/timePositionNaut miles runAvg speedWind from/ knotsBaromVisibWave heightAir tempDewpointWater temp
2017-Sep-24 10:29N 36°35' E 015°00'815.6
2017-Sep-24 10:00N 36°35' E 014°51'815.3
2017-Sep-24 09:30N 36°37' E 014°41'815.1
2017-Sep-24 08:59N 36°40' E 014°32'815.0
2017-Sep-24 08:25N 36°43' E 014°23'615.0
2017-Sep-24 08:00N 36°46' E 014°16'815.7
2017-Sep-24 07:28N 36°50' E 014°06'816.3
2017-Sep-24 07:00N 36°53' E 013°58'816.3
2017-Sep-24 06:31N 36°56' E 013°49'815.9
2017-Sep-24 06:00N 36°60' E 013°40'  
2017-Sep-21 19:52N 39°43' W 000°02'1915.5
2017-Sep-21 18:36N 39°57' E 000°16'215.3
2017-Sep-21 18:30N 39°58' E 000°17'815.2
2017-Sep-21 18:00N 40°04' E 000°24'1615.0
2017-Sep-21 16:56N 40°16' E 000°38'1114.7
2017-Sep-21 16:12N 40°24' E 000°47'414.6
2017-Sep-21 15:57N 40°28' E 000°49'714.5
2017-Sep-21 15:26N 40°34' E 000°54'1014.9
2017-Sep-21 14:47N 40°42' E 001°00'915.3
2017-Sep-21 14:11N 40°51' E 001°05'1315.0
2017-Sep-21 13:21N 41°02' E 001°12'3 0.2
2017-Sep-20 16:13N 41°06' E 001°12'0 0.0
2017-Sep-20 15:43N 41°06' E 001°12'0 0.0
2017-Sep-20 15:25N 41°06' E 001°12'0 0.0
2017-Sep-20 14:55N 41°06' E 001°12'15 1.0
2017-Sep-19 23:00N 40°56' E 001°28'813.9
2017-Sep-19 22:26N 40°52' E 001°37'714.0
2017-Sep-19 21:56N 40°48' E 001°45'614.2
2017-Sep-19 21:30N 40°45' E 001°51'714.3
2017-Sep-19 21:00N 40°41' E 001°59'714.4
2017-Sep-19 20:30N 40°37' E 002°08'714.3
2017-Sep-19 20:00N 40°33' E 002°15'714.6
2017-Sep-19 19:30N 40°29' E 002°24'714.9
2017-Sep-19 19:00N 40°25' E 002°32'815.2
2017-Sep-19 18:30N 40°21' E 002°40'815.2
2017-Sep-19 18:00N 40°17' E 002°49'815.3
2017-Sep-19 17:30N 40°13' E 002°57'815.6
2017-Sep-19 17:00N 40°09' E 003°06'2014.9
2017-Sep-19 15:40N 39°58' E 003°27'315.4
2017-Sep-19 15:30N 39°57' E 003°30'815.4
2017-Sep-19 15:00N 39°53' E 003°39'815.0
2017-Sep-19 14:28N 39°50' E 003°49'715.0
2017-Sep-19 14:00N 39°48' E 003°58'22514.4
2017-Sep-18 22:23N 38°44' E 008°36'614.9
2017-Sep-18 21:59N 38°42' E 008°43'815.0
2017-Sep-18 21:29N 38°39' E 008°52'714.9
2017-Sep-18 21:00N 38°36' E 009°00'1014.9
2017-Sep-18 20:20N 38°33' E 009°12'515.0
2017-Sep-18 20:00N 38°31' E 009°18'814.9
2017-Sep-18 19:29N 38°28' E 009°27'714.8
2017-Sep-18 19:00N 38°25' E 009°36'814.6
2017-Sep-18 18:27N 38°22' E 009°45'714.4
2017-Sep-18 18:00N 38°20' E 009°53'10414.7
2017-Sep-18 10:53N 37°39' E 011°55'614.7
2017-Sep-18 10:28N 37°36' E 012°02'714.7
2017-Sep-18 10:00N 37°33' E 012°10'714.3
2017-Sep-18 09:30N 37°30' E 012°18'714.0
2017-Sep-18 09:00N 37°27' E 012°26'1314.7
2017-Sep-18 08:08N 37°22' E 012°40'1514.1
2017-Sep-18 07:03N 37°15' E 012°58'114.2
2017-Sep-18 07:00N 37°15' E 012°59'1114.3
2017-Sep-18 06:15N 37°11' E 013°11'314.2
2017-Sep-18 06:00N 37°09' E 013°15'714.3
2017-Sep-18 05:30N 37°06' E 013°23'814.4
2017-Sep-18 04:59N 37°03' E 013°32'714.1
2017-Sep-18 04:30N 37°00' E 013°39'714.2
2017-Sep-18 04:00N 36°57' E 013°47'714.6
2017-Sep-18 03:30N 36°54' E 013°55'815.0
2017-Sep-18 03:00N 36°51' E 014°04'714.5
2017-Sep-18 02:30N 36°48' E 014°12'714.4
2017-Sep-18 02:00N 36°45' E 014°20'815.1
2017-Sep-18 01:30N 36°41' E 014°29'714.9
2017-Sep-18 01:00N 36°38' E 014°37'714.9
2017-Sep-18 00:30N 36°35' E 014°46'814.8
2017-Sep-18 00:00N 36°36' E 014°55'715.0
2017-Sep-17 23:30N 36°36' E 015°04'815.0
2017-Sep-17 22:59N 36°38' E 015°14'5614.6
2017-Sep-17 19:10N 37°21' E 015°58'314.7
2017-Sep-17 18:59N 37°23' E 016°00'714.5
2017-Sep-17 18:30N 37°28' E 016°06'814.1
2017-Sep-17 17:55N 37°34' E 016°12'613.9
2017-Sep-17 17:28N 37°39' E 016°18'2914.4
2017-Sep-17 15:25N 38°02' E 016°41'714.6
2017-Sep-17 14:55N 38°08' E 016°47'1614.7
2017-Sep-17 13:48N 38°21' E 017°00'414.6
2017-Sep-17 13:30N 38°24' E 017°04'714.6
2017-Sep-17 13:00N 38°29' E 017°10'714.5
2017-Sep-17 12:30N 38°35' E 017°16'714.4
2017-Sep-17 12:01N 38°40' E 017°22'714.4
2017-Sep-17 11:31N 38°46' E 017°27'714.7
2017-Sep-17 11:00N 38°52' E 017°33'714.6
2017-Sep-17 10:31N 38°57' E 017°39'714.2
2017-Sep-17 10:01N 39°03' E 017°45'714.5
2017-Sep-17 09:31N 39°09' E 017°51'714.4
2017-Sep-17 09:01N 39°14' E 017°57'714.4
2017-Sep-17 08:30N 39°20' E 018°03'714.4
2017-Sep-17 08:01N 39°25' E 018°09'714.9
2017-Sep-17 07:31N 39°31' E 018°15'815.2
2017-Sep-17 07:00N 39°37' E 018°21'714.8
2017-Sep-17 06:31N 39°43' E 018°27'713.8
2017-Sep-17 06:01N 39°49' E 018°32'714.1
2017-Sep-17 05:30N 39°55' E 018°34'714.3
2017-Sep-17 05:01N 40°02' E 018°37'714.0
2017-Sep-17 04:30N 40°09' E 018°37'714.9
2017-Sep-17 04:00N 40°16' E 018°34'714.9
2017-Sep-17 03:30N 40°23' E 018°31'715.0
2017-Sep-17 03:00N 40°30' E 018°28'714.3
2017-Sep-17 02:30N 40°36' E 018°23'714.8
2017-Sep-17 02:00N 40°42' E 018°16'815.1
2017-Sep-17 01:30N 40°47' E 018°09'815.1
2017-Sep-17 01:00N 40°52' E 018°02'815.0
2017-Sep-17 00:30N 40°58' E 017°55'714.7
2017-Sep-17 00:00N 41°03' E 017°48'714.5
2017-Sep-16 23:30N 41°08' E 017°41'714.7
2017-Sep-16 23:00N 41°13' E 017°34'914.6
2017-Sep-16 22:25N 41°19' E 017°26'614.5
2017-Sep-16 22:00N 41°23' E 017°20'714.2
2017-Sep-16 21:30N 41°28' E 017°13'714.4
2017-Sep-16 20:59N 41°33' E 017°06'15114.8
2017-Sep-16 10:47N 43°25' E 014°47'714.7
2017-Sep-16 10:17N 43°30' E 014°41'2714.5
2017-Sep-16 08:24N 43°51' E 014°17'1715.1
2017-Sep-16 07:15N 44°05' E 014°03'415.4
2017-Sep-16 07:00N 44°09' E 014°00'815.3
2017-Sep-16 06:30N 44°15' E 013°54'815.1
2017-Sep-16 06:00N 44°21' E 013°49'714.8
2017-Sep-16 05:30N 44°28' E 013°43'714.7
2017-Sep-16 05:01N 44°34' E 013°37'714.4
2017-Sep-16 04:30N 44°40' E 013°32'714.7
2017-Sep-16 04:00N 44°46' E 013°26'714.6
2017-Sep-16 03:30N 44°52' E 013°20'714.3
2017-Sep-16 03:00N 44°58' E 013°14'714.3
2017-Sep-16 02:30N 45°04' E 013°09'714.0
2017-Sep-16 02:00N 45°10' E 013°04'714.3
2017-Sep-16 01:30N 45°17' E 013°02'713.5
2017-Sep-16 01:00N 45°24' E 013°04'815.2
2017-Sep-16 00:30N 45°29' E 013°11'714.9
2017-Sep-16 00:00N 45°34' E 013°19'815.2
2017-Sep-15 23:30N 45°37' E 013°29'713.2
2017-Sep-15 23:00N 45°36' E 013°39'4 8.6
2017-Sep-15 22:30N 45°33' E 013°43'1 1.0
2017-Sep-15 21:52N 45°33' E 013°44'0 0.0
2017-Sep-15 21:16N 45°33' E 013°44'0 0.0
2017-Sep-15 20:58N 45°33' E 013°44'0 0.0
2017-Sep-15 20:28N 45°33' E 013°44'0 0.0
2017-Sep-15 19:55N 45°33' E 013°44'0 0.0
2017-Sep-15 19:28N 45°33' E 013°44'0 0.0
2017-Sep-15 18:58N 45°33' E 013°44'0 0.0
2017-Sep-15 18:22N 45°33' E 013°44'0 0.0
2017-Sep-15 17:58N 45°33' E 013°44'0 0.0
2017-Sep-15 17:25N 45°33' E 013°44'0 0.0
2017-Sep-15 16:58N 45°33' E 013°44'0 0.0
2017-Sep-15 16:28N 45°33' E 013°44'0 0.0
2017-Sep-15 15:55N 45°33' E 013°44'0 0.0
2017-Sep-15 15:28N 45°33' E 013°44'0 0.0
2017-Sep-15 14:58N 45°33' E 013°44'0 0.0
2017-Sep-15 14:28N 45°33' E 013°44'0 0.0
2017-Sep-15 13:58N 45°33' E 013°44'0 0.0
2017-Sep-15 13:28N 45°33' E 013°44'0 0.0
2017-Sep-15 12:58N 45°33' E 013°44'0 0.0
2017-Sep-15 12:28N 45°33' E 013°44'0 0.0
2017-Sep-15 07:55N 45°33' E 013°44'0 0.0
2017-Sep-15 07:28N 45°33' E 013°44'0 0.0
2017-Sep-15 06:55N 45°33' E 013°44'0 0.0
2017-Sep-15 06:22N 45°33' E 013°44'0 0.0
2017-Sep-15 05:58N 45°33' E 013°44'0 0.0
2017-Sep-15 05:25N 45°33' E 013°44'0 0.0
2017-Sep-15 04:58N 45°33' E 013°44'0 0.0
2017-Sep-15 04:28N 45°33' E 013°44'0 0.0
2017-Sep-15 03:55N 45°33' E 013°44'0 0.0
2017-Sep-15 03:22N 45°33' E 013°44'0 0.0
2017-Sep-15 02:58N 45°33' E 013°44'0 0.0
2017-Sep-15 02:25N 45°33' E 013°44'0 0.0
2017-Sep-15 01:52N 45°33' E 013°44'0 0.0
2017-Sep-15 01:28N 45°33' E 013°44'0 0.0
2017-Sep-15 00:55N 45°33' E 013°44'0 0.0
2017-Sep-15 00:25N 45°33' E 013°44'0 0.0
2017-Sep-14 23:55N 45°33' E 013°44'0 0.0
2017-Sep-14 23:25N 45°33' E 013°44'0 0.0
2017-Sep-14 22:58N 45°33' E 013°44'0 0.0
2017-Sep-14 22:25N 45°33' E 013°44'0 0.0
2017-Sep-14 21:55N 45°33' E 013°44'0 0.0
2017-Sep-14 21:28N 45°33' E 013°44'0 0.0
2017-Sep-14 20:55N 45°33' E 013°44'0 0.0
2017-Sep-14 20:28N 45°33' E 013°44'0 0.0
2017-Sep-14 19:58N 45°33' E 013°44'0 0.0
2017-Sep-14 19:28N 45°33' E 013°44'0 0.0
2017-Sep-14 18:55N 45°33' E 013°44'0 0.0
2017-Sep-14 18:28N 45°33' E 013°44'0 0.0
2017-Sep-14 17:55N 45°33' E 013°44'0 0.0
2017-Sep-14 17:13N 45°33' E 013°44'0 0.0
2017-Sep-14 16:55N 45°33' E 013°44'0 0.0
2017-Sep-14 16:13N 45°33' E 013°44'0 0.0
2017-Sep-14 15:55N 45°33' E 013°44'0 0.0
2017-Sep-14 15:28N 45°33' E 013°44'0 0.0
2017-Sep-14 14:55N 45°33' E 013°44'0 0.0
2017-Sep-14 14:25N 45°33' E 013°44'0 0.0
2017-Sep-14 13:58N 45°33' E 013°44'0 0.0
2017-Sep-14 13:19N 45°33' E 013°44'0 0.0
2017-Sep-14 12:58N 45°33' E 013°44'0 0.0
2017-Sep-14 12:28N 45°33' E 013°44'0 0.0
2017-Sep-14 11:58N 45°33' E 013°44'0 0.0
2017-Sep-14 11:28N 45°33' E 013°44'0 0.0
2017-Sep-14 10:40N 45°33' E 013°44'  

Dump ship's entire track history